createdAt,value
2022-08-11T00:00:59.332Z,13.80
2022-08-11T00:03:42.362Z,14.00
2022-08-11T00:06:14.245Z,12.75
2022-08-11T00:08:42.639Z,13.32
2022-08-11T00:11:12.520Z,13.00
2022-08-11T00:13:45.391Z,13.55
2022-08-11T00:16:17.716Z,12.63
2022-08-11T00:18:47.108Z,13.60
2022-08-11T00:21:15.338Z,13.07
2022-08-11T00:23:45.202Z,13.38
2022-08-11T00:26:14.633Z,14.85
2022-08-11T00:28:42.228Z,13.23
2022-08-11T00:31:19.413Z,12.80
2022-08-11T00:33:48.343Z,13.65
2022-08-11T00:36:20.855Z,13.48
2022-08-11T00:38:56.013Z,14.82
2022-08-11T00:41:32.081Z,14.45
2022-08-11T00:44:21.180Z,14.20
2022-08-11T00:46:57.534Z,15.02
2022-08-11T00:49:37.110Z,15.07
2022-08-11T00:52:25.920Z,15.02
2022-08-11T00:55:24.122Z,14.25
2022-08-11T00:58:22.634Z,14.93
2022-08-11T01:01:14.827Z,13.68
2022-08-11T01:03:54.138Z,14.60
2022-08-11T01:06:33.054Z,13.32
2022-08-11T01:09:22.055Z,12.95
2022-08-11T01:12:15.618Z,12.50
2022-08-11T01:15:13.495Z,22.05
2022-08-11T01:18:05.489Z,16.52
2022-08-11T01:21:25.180Z,13.32
2022-08-11T01:24:37.382Z,13.68
2022-08-11T01:27:41.340Z,11.60
2022-08-11T01:30:20.773Z,12.82
2022-08-11T01:33:39.338Z,13.02
2022-08-11T01:36:12.695Z,12.77
2022-08-11T01:38:58.252Z,12.65
2022-08-11T01:41:59.396Z,12.30
2022-08-11T01:44:38.591Z,12.20
2022-08-11T01:47:52.745Z,11.85
2022-08-11T01:51:02.217Z,12.05
2022-08-11T01:53:40.102Z,12.40
2022-08-11T01:56:26.606Z,12.20
2022-08-11T01:59:00.803Z,12.48
2022-08-11T02:01:50.493Z,12.75
2022-08-11T02:04:26.584Z,11.77
2022-08-11T02:07:31.171Z,11.32
2022-08-11T02:10:36.672Z,12.48
2022-08-11T02:13:35.715Z,11.80
2022-08-11T02:16:24.558Z,11.60
2022-08-11T02:19:35.316Z,11.80
2022-08-11T02:22:23.928Z,12.23
2022-08-11T02:25:02.469Z,11.90
2022-08-11T02:27:44.033Z,11.43
2022-08-11T02:30:16.977Z,11.52
2022-08-11T02:33:25.446Z,11.27
2022-08-11T02:35:54.737Z,11.15
2022-08-11T02:38:33.736Z,10.80
2022-08-11T02:41:32.051Z,11.90
2022-08-11T02:44:21.841Z,9.85
2022-08-11T02:47:07.104Z,9.82
2022-08-11T02:50:07.266Z,9.90
2022-08-11T02:52:45.493Z,9.27
2022-08-11T02:55:48.076Z,9.38
2022-08-11T02:58:17.445Z,9.55
2022-08-11T03:01:13.099Z,9.45
2022-08-11T03:04:04.875Z,9.45
2022-08-11T03:06:53.103Z,9.68
2022-08-11T03:09:44.431Z,9.90
2022-08-11T03:12:36.355Z,9.48
2022-08-11T03:15:41.579Z,9.90
2022-08-11T03:18:54.064Z,9.15
2022-08-11T03:21:23.709Z,9.10
2022-08-11T03:24:20.636Z,9.25
2022-08-11T03:26:47.846Z,9.57
2022-08-11T03:29:37.914Z,8.98
2022-08-11T03:32:20.388Z,9.07
2022-08-11T03:34:48.753Z,8.63
2022-08-11T03:37:46.997Z,9.40
2022-08-11T03:40:57.971Z,8.95
2022-08-11T03:43:34.709Z,10.15
2022-08-11T03:46:09.147Z,9.50
2022-08-11T03:48:54.578Z,9.38
2022-08-11T03:51:51.888Z,9.20
2022-08-11T03:54:29.819Z,9.57
2022-08-11T03:57:14.230Z,9.43
2022-08-11T03:59:44.993Z,9.98
2022-08-11T04:02:18.112Z,9.52
2022-08-11T04:05:07.639Z,9.63
2022-08-11T04:08:04.352Z,9.70
2022-08-11T04:11:09.252Z,9.32
2022-08-11T04:14:18.990Z,9.45
2022-08-11T04:17:22.874Z,10.20
2022-08-11T04:20:29.430Z,9.88
2022-08-11T04:24:34.687Z,10.52
2022-08-11T04:26:37.391Z,10.25
2022-08-11T04:29:18.206Z,10.35
2022-08-11T04:32:06.833Z,10.23
2022-08-11T04:34:34.152Z,10.43
2022-08-11T04:37:23.092Z,10.63
2022-08-11T04:40:11.236Z,11.48
2022-08-11T04:43:21.817Z,10.77
2022-08-11T04:46:10.893Z,11.30
2022-08-11T04:49:24.201Z,11.40
2022-08-11T04:52:44.180Z,11.88
2022-08-11T04:55:51.848Z,11.60
2022-08-11T04:59:10.983Z,11.73
2022-08-11T05:02:00.568Z,11.35
2022-08-11T05:05:17.166Z,11.77
2022-08-11T05:08:05.819Z,12.13
2022-08-11T05:10:43.387Z,12.27
2022-08-11T05:13:31.086Z,12.80
2022-08-11T05:16:20.670Z,12.80
2022-08-11T05:19:08.949Z,12.48
2022-08-11T05:21:55.363Z,12.25
2022-08-11T05:24:47.853Z,12.50
2022-08-11T05:27:35.395Z,12.82
2022-08-11T05:30:23.505Z,12.35
2022-08-11T05:33:23.311Z,13.05
2022-08-11T05:36:09.199Z,13.30
2022-08-11T05:38:55.707Z,13.40
2022-08-11T05:41:45.634Z,13.60
2022-08-11T05:44:37.287Z,13.82
2022-08-11T05:47:23.797Z,13.10
2022-08-11T05:50:13.691Z,13.50
2022-08-11T05:53:09.311Z,12.52
2022-08-11T05:56:03.886Z,12.60
2022-08-11T05:58:41.379Z,11.82
2022-08-11T06:01:16.938Z,12.63
2022-08-11T06:04:09.937Z,12.30
2022-08-11T06:06:45.151Z,11.90
2022-08-11T06:09:14.577Z,11.70
2022-08-11T06:11:44.826Z,11.68
2022-08-11T06:14:15.904Z,12.35
2022-08-11T06:16:48.562Z,12.30
2022-08-11T06:19:17.550Z,12.48
2022-08-11T06:21:49.641Z,12.85
2022-08-11T06:24:18.166Z,12.30
2022-08-11T06:29:55.278Z,13.98
2022-08-11T06:32:33.203Z,12.55
2022-08-11T06:35:24.943Z,12.20
2022-08-11T06:38:16.387Z,13.10
2022-08-11T06:41:31.039Z,13.35
2022-08-11T06:44:13.669Z,12.88
2022-08-11T06:46:43.977Z,13.05
2022-08-11T06:49:32.062Z,13.57
2022-08-11T06:52:05.805Z,13.90
2022-08-11T06:54:37.230Z,13.38
2022-08-11T06:57:32.136Z,14.25
2022-08-11T07:00:36.660Z,13.60
2022-08-11T07:03:11.940Z,14.50
2022-08-11T07:05:48.105Z,13.15
2022-08-11T07:08:37.255Z,13.00
2022-08-11T07:11:48.573Z,13.73
2022-08-11T07:14:41.793Z,13.93
2022-08-11T07:17:12.438Z,13.90
2022-08-11T07:20:02.674Z,13.50
2022-08-11T07:22:50.147Z,14.73
2022-08-11T07:25:37.121Z,13.80
2022-08-11T07:28:29.491Z,14.68
2022-08-11T07:31:02.021Z,14.73
2022-08-11T07:34:07.588Z,14.18
2022-08-11T07:36:34.013Z,14.43
2022-08-11T07:39:02.283Z,14.52
2022-08-11T07:41:34.425Z,14.02
2022-08-11T07:44:09.198Z,14.98
2022-08-11T07:46:59.142Z,14.15
2022-08-11T07:49:56.715Z,14.98
2022-08-11T07:52:29.958Z,15.10
2022-08-11T07:55:02.462Z,15.18
2022-08-11T07:58:13.960Z,14.93
2022-08-11T08:01:10.651Z,15.50
2022-08-11T08:04:03.022Z,15.40
2022-08-11T08:06:51.703Z,15.05
2022-08-11T08:09:39.120Z,15.40
2022-08-11T08:12:26.733Z,14.90
2022-08-11T08:15:14.956Z,15.48
2022-08-11T08:18:09.040Z,16.10
2022-08-11T08:20:47.375Z,15.70
2022-08-11T08:23:15.817Z,15.63
2022-08-11T08:25:45.157Z,15.40
2022-08-11T08:28:23.332Z,15.93
2022-08-11T08:30:51.807Z,15.68
2022-08-11T08:33:31.012Z,16.58
2022-08-11T08:36:14.851Z,16.27
2022-08-11T08:38:44.008Z,16.38
2022-08-11T08:41:16.320Z,15.52
2022-08-11T08:43:52.209Z,16.02
2022-08-11T08:46:22.519Z,16.65
2022-08-11T08:49:03.813Z,17.05
2022-08-11T08:51:58.599Z,17.52
2022-08-11T08:54:48.550Z,16.63
2022-08-11T08:57:52.168Z,18.00
2022-08-11T09:00:49.105Z,17.70
2022-08-11T09:04:02.990Z,17.60
2022-08-11T09:06:10.419Z,17.95
2022-08-11T09:08:42.013Z,18.50
2022-08-11T09:11:33.251Z,17.80
2022-08-11T09:14:05.892Z,17.48
2022-08-11T09:16:39.246Z,18.35
2022-08-11T09:19:15.625Z,18.48
2022-08-11T09:22:07.938Z,17.92
2022-08-11T09:24:57.714Z,18.35
2022-08-11T09:27:26.303Z,18.40
2022-08-11T09:29:54.096Z,18.58
2022-08-11T09:32:29.718Z,18.30
2022-08-11T09:35:01.017Z,18.15
2022-08-11T09:37:54.760Z,18.00
2022-08-11T09:40:31.248Z,18.48
2022-08-11T09:43:21.930Z,18.27
2022-08-11T09:45:52.481Z,19.17
2022-08-11T09:48:21.443Z,19.58
2022-08-11T09:50:53.479Z,18.90
2022-08-11T09:53:35.834Z,20.33
2022-08-11T09:56:30.984Z,21.25
2022-08-11T09:58:59.247Z,20.95
2022-08-11T10:01:31.493Z,21.92
2022-08-11T10:04:04.546Z,21.77
2022-08-11T10:07:04.621Z,21.85
2022-08-11T10:09:58.178Z,21.55
2022-08-11T10:12:52.761Z,21.83
2022-08-11T10:15:38.286Z,21.58
2022-08-11T10:18:37.844Z,21.10
2022-08-11T10:21:22.951Z,20.90
2022-08-11T10:24:11.935Z,20.95
2022-08-11T10:26:53.837Z,20.63
2022-08-11T10:29:54.347Z,19.23
2022-08-11T10:32:59.006Z,20.85
2022-08-11T10:35:41.057Z,19.58
2022-08-11T10:38:18.884Z,20.95
2022-08-11T10:41:33.332Z,21.98
2022-08-11T10:47:49.670Z,21.05
2022-08-11T10:50:39.741Z,21.50
2022-08-11T10:53:28.141Z,21.98
2022-08-11T11:14:00.039Z,19.05
2022-08-11T11:16:57.932Z,19.27
2022-08-11T11:19:27.247Z,19.00
2022-08-11T11:22:24.080Z,19.55
2022-08-11T11:25:16.820Z,18.42
2022-08-11T11:28:08.096Z,17.95
2022-08-11T11:30:49.612Z,17.02
2022-08-11T11:33:27.960Z,17.73
2022-08-11T11:36:22.359Z,17.30
2022-08-11T11:38:53.890Z,16.67
2022-08-11T11:41:28.129Z,17.83
2022-08-11T11:44:00.417Z,17.75
2022-08-11T11:50:46.007Z,17.90
2022-08-11T11:53:18.007Z,18.02
2022-08-11T11:56:15.843Z,17.52
2022-08-11T11:59:07.668Z,17.08
2022-08-11T12:01:42.909Z,17.65
2022-08-11T12:04:25.664Z,17.50
2022-08-11T12:10:22.058Z,17.25
2022-08-11T12:18:39.114Z,17.40
2022-08-11T12:21:14.722Z,18.52
2022-08-11T12:24:05.598Z,16.92
2022-08-11T12:27:02.813Z,17.80
2022-08-11T12:29:41.237Z,17.17
2022-08-11T12:36:00.778Z,17.48
2022-08-11T12:38:51.182Z,16.52
2022-08-11T12:41:50.831Z,17.33
2022-08-11T12:44:39.939Z,18.02
2022-08-11T12:47:11.971Z,16.88
2022-08-11T12:50:05.749Z,17.83
2022-08-11T12:53:40.153Z,16.58
2022-08-11T12:56:29.043Z,17.30
2022-08-11T12:59:15.643Z,17.45
2022-08-11T13:02:02.714Z,17.30
2022-08-11T13:04:53.442Z,17.50
2022-08-11T13:07:50.531Z,16.95
2022-08-11T13:10:45.243Z,17.00
2022-08-11T13:13:52.741Z,17.50
2022-08-11T13:16:03.278Z,16.48
2022-08-11T13:18:36.571Z,16.73
2022-08-11T13:21:08.952Z,16.23
2022-08-11T13:23:39.525Z,16.63
2022-08-11T13:26:12.567Z,17.13
2022-08-11T13:28:55.516Z,16.42
2022-08-11T13:31:24.285Z,15.70
2022-08-11T13:34:06.002Z,16.20
2022-08-11T13:36:35.774Z,15.68
2022-08-11T13:39:16.708Z,16.30
2022-08-11T13:42:06.323Z,16.23
2022-08-11T13:44:39.299Z,15.55
2022-08-11T13:47:08.717Z,16.35
2022-08-11T13:49:40.219Z,16.95
2022-08-11T13:52:16.210Z,14.65
2022-08-11T13:54:49.026Z,14.98
2022-08-11T13:58:06.551Z,14.77
2022-08-11T14:00:25.019Z,15.18
2022-08-11T14:02:58.687Z,14.77
2022-08-11T14:05:45.918Z,14.43
2022-08-11T14:08:37.286Z,15.80
2022-08-11T14:12:21.994Z,16.02
2022-08-11T14:14:25.073Z,15.25
2022-08-11T14:16:57.314Z,15.77
2022-08-11T14:19:30.574Z,15.20
2022-08-11T14:22:17.376Z,15.02
2022-08-11T14:24:55.282Z,14.80
2022-08-11T14:30:34.910Z,16.30
2022-08-11T14:33:16.538Z,15.45
2022-08-11T14:35:48.792Z,15.85
2022-08-11T14:38:29.284Z,15.95
2022-08-11T14:41:31.197Z,16.00
2022-08-11T14:44:27.659Z,15.65
2022-08-11T14:47:23.726Z,16.55
2022-08-11T14:50:15.037Z,16.83
2022-08-11T14:53:19.333Z,16.95
2022-08-11T14:56:05.966Z,16.27
2022-08-11T14:58:34.725Z,16.95
2022-08-11T15:01:24.085Z,16.05
2022-08-11T15:04:34.032Z,16.45
2022-08-11T15:06:40.813Z,16.60
2022-08-11T15:09:09.579Z,16.55
2022-08-11T15:11:56.183Z,16.25
2022-08-11T15:14:48.162Z,16.00
2022-08-11T15:17:16.275Z,16.85
2022-08-11T15:20:03.598Z,16.02
2022-08-11T15:22:50.106Z,16.67
2022-08-11T15:25:20.036Z,16.77
2022-08-11T15:28:09.804Z,15.93
2022-08-11T15:30:57.529Z,16.48
2022-08-11T15:33:46.277Z,16.30
2022-08-11T15:36:33.180Z,15.88
2022-08-11T15:39:38.055Z,17.45
2022-08-11T15:42:34.137Z,16.45
2022-08-11T15:45:23.239Z,16.25
2022-08-11T15:48:05.637Z,15.32
2022-08-11T15:50:40.903Z,15.52
2022-08-11T15:53:56.232Z,16.13
2022-08-11T15:56:28.233Z,16.20
2022-08-11T15:59:41.995Z,15.57
2022-08-11T16:02:56.903Z,15.55
2022-08-11T16:05:59.769Z,14.88
2022-08-11T16:08:51.609Z,14.68
2022-08-11T16:11:27.157Z,15.52
2022-08-11T16:14:13.962Z,15.43
2022-08-11T16:16:43.444Z,15.23
2022-08-11T16:19:13.506Z,16.05
2022-08-11T16:21:44.128Z,15.07
2022-08-11T16:27:05.523Z,15.35
2022-08-11T16:27:13.095Z,15.82
2022-08-11T16:29:46.589Z,15.07
2022-08-11T16:32:20.615Z,14.68
2022-08-11T16:35:11.893Z,15.15
2022-08-11T16:37:59.894Z,15.55
2022-08-11T16:40:29.819Z,15.57
2022-08-11T16:43:17.197Z,14.23
2022-08-11T16:46:03.754Z,14.30
2022-08-11T16:48:37.813Z,14.32
2022-08-11T16:51:07.917Z,15.73
2022-08-11T16:53:59.993Z,14.43
2022-08-11T16:56:41.799Z,15.48
2022-08-11T16:59:15.229Z,15.63
2022-08-11T17:01:53.816Z,14.35
2022-08-11T17:04:48.784Z,14.48
2022-08-11T17:07:41.643Z,13.50
2022-08-11T17:11:04.060Z,13.82
2022-08-11T17:13:36.125Z,14.02
2022-08-11T17:16:08.131Z,14.00
2022-08-11T17:19:13.081Z,13.40
2022-08-11T17:22:04.446Z,13.93
2022-08-11T17:24:35.944Z,14.18
2022-08-11T17:27:06.246Z,13.95
2022-08-11T17:29:54.507Z,14.20
2022-08-11T17:33:00.755Z,14.27
2022-08-11T17:35:32.340Z,13.55
2022-08-11T17:38:13.114Z,13.82
2022-08-11T17:41:05.508Z,13.52
2022-08-11T17:43:54.150Z,15.20
2022-08-11T17:46:41.412Z,14.25
2022-08-11T17:49:12.045Z,13.60
2022-08-11T17:52:04.255Z,13.27
2022-08-11T17:54:54.449Z,12.55
2022-08-11T17:57:47.522Z,13.35
2022-08-11T18:00:17.461Z,13.80
2022-08-11T18:03:08.230Z,13.52
2022-08-11T18:05:42.614Z,13.65
2022-08-11T18:08:37.157Z,14.13
2022-08-11T18:12:06.524Z,13.40
2022-08-11T18:14:50.611Z,13.40
2022-08-11T18:17:42.010Z,13.02
2022-08-11T18:20:35.268Z,13.13
2022-08-11T18:23:40.640Z,12.70
2022-08-11T18:26:39.242Z,12.13
2022-08-11T18:29:28.981Z,12.60
2022-08-11T18:32:33.873Z,13.00
2022-08-11T18:35:31.724Z,12.77
2022-08-11T18:38:24.012Z,13.00
2022-08-11T18:41:21.207Z,12.70
2022-08-11T18:44:15.928Z,12.93
2022-08-11T18:47:05.871Z,13.05
2022-08-11T18:50:05.749Z,13.38
2022-08-11T18:53:01.021Z,13.02
2022-08-11T18:55:54.419Z,12.82
2022-08-11T18:58:49.142Z,12.35
2022-08-11T19:01:45.925Z,12.93
2022-08-11T19:04:53.273Z,12.68
2022-08-11T19:07:51.650Z,13.15
2022-08-11T19:10:41.309Z,13.00
2022-08-11T19:13:31.449Z,13.05
2022-08-11T19:16:18.036Z,12.57
2022-08-11T19:19:10.427Z,13.05
2022-08-11T19:21:57.704Z,13.32
2022-08-11T19:24:48.063Z,12.32
2022-08-11T19:27:35.722Z,12.73
2022-08-11T19:30:23.023Z,12.52
2022-08-11T19:33:13.824Z,12.65
2022-08-11T19:36:01.584Z,12.55
2022-08-11T19:38:52.053Z,12.32
2022-08-11T19:42:31.259Z,13.05
2022-08-11T19:45:21.388Z,12.63
2022-08-11T19:48:31.380Z,12.75
2022-08-11T19:51:21.550Z,12.75
2022-08-11T19:54:09.693Z,12.73
2022-08-11T19:57:04.173Z,13.05
2022-08-11T19:59:54.408Z,12.38
2022-08-11T20:02:40.547Z,12.75
2022-08-11T20:05:32.151Z,12.30
2022-08-11T20:08:21.752Z,12.15
2022-08-11T20:11:09.747Z,12.65
2022-08-11T20:14:01.908Z,13.02
2022-08-11T20:16:48.379Z,12.65
2022-08-11T20:19:54.977Z,12.20
2022-08-11T20:22:46.870Z,12.18
2022-08-11T20:25:37.018Z,13.30
2022-08-11T20:28:24.522Z,12.65
2022-08-11T20:31:11.630Z,12.85
2022-08-11T20:33:58.103Z,12.60
2022-08-11T20:36:54.564Z,14.40
2022-08-11T20:39:44.378Z,12.50
2022-08-11T20:42:33.159Z,12.88
2022-08-11T20:45:23.936Z,12.25
2022-08-11T20:48:14.689Z,12.45
2022-08-11T20:51:07.199Z,12.25
2022-08-11T20:53:56.867Z,12.30
2022-08-11T20:56:45.761Z,13.30
2022-08-11T20:59:49.303Z,12.90
2022-08-11T21:02:40.349Z,12.65
2022-08-11T21:06:10.580Z,12.68
2022-08-11T21:08:44.008Z,12.88
2022-08-11T21:11:33.609Z,13.00
2022-08-11T21:14:22.757Z,12.68
2022-08-11T21:17:27.555Z,14.35
2022-08-11T21:20:21.498Z,12.82
2022-08-11T21:23:23.689Z,12.82
2022-08-11T21:26:21.228Z,13.07
2022-08-11T21:29:07.287Z,24.45
2022-08-11T21:31:53.826Z,13.15
2022-08-11T21:34:41.250Z,14.02
2022-08-11T21:37:28.341Z,14.52
2022-08-11T21:40:17.403Z,13.13
2022-08-11T21:43:06.469Z,14.48
2022-08-11T21:45:54.579Z,14.23
2022-08-11T21:48:42.347Z,13.63
2022-08-11T21:51:28.932Z,14.02
2022-08-11T21:54:17.021Z,13.32
2022-08-11T21:57:04.393Z,12.90
2022-08-11T22:00:09.235Z,13.90
2022-08-11T22:02:57.237Z,12.40
2022-08-11T22:05:44.471Z,13.18
2022-08-11T22:08:31.038Z,12.80
2022-08-11T22:11:32.037Z,12.90
2022-08-11T22:14:19.927Z,12.52
2022-08-11T22:17:06.074Z,12.10
2022-08-11T22:19:53.900Z,13.60
2022-08-11T22:22:52.201Z,12.48
2022-08-11T22:25:51.428Z,12.93
2022-08-11T22:28:39.511Z,12.77
2022-08-11T22:31:27.688Z,12.75
2022-08-11T22:34:13.417Z,13.30
2022-08-11T22:37:04.088Z,13.32
2022-08-11T22:39:58.335Z,13.38
2022-08-11T22:42:50.530Z,13.35
2022-08-11T22:45:37.337Z,13.00
2022-08-11T22:48:27.939Z,13.68
2022-08-11T22:51:14.966Z,13.40
2022-08-11T22:54:01.840Z,14.10
2022-08-11T22:56:49.393Z,13.57
2022-08-11T22:59:37.562Z,13.85
2022-08-11T23:02:25.584Z,14.95
2022-08-11T23:05:11.876Z,14.13
2022-08-11T23:07:59.859Z,14.43
2022-08-11T23:10:46.395Z,13.93
2022-08-11T23:13:32.556Z,14.30
2022-08-11T23:16:27.059Z,13.43
2022-08-11T23:20:04.818Z,14.32
2022-08-11T23:23:02.126Z,14.23
2022-08-11T23:25:49.927Z,14.85
2022-08-11T23:28:35.642Z,14.82
2022-08-11T23:31:23.066Z,14.77
2022-08-11T23:35:03.972Z,14.95
2022-08-11T23:37:18.930Z,15.70
2022-08-11T23:40:04.913Z,16.38
2022-08-11T23:42:58.430Z,15.75
2022-08-11T23:45:45.379Z,15.63
2022-08-11T23:48:35.278Z,15.48
2022-08-11T23:51:21.379Z,15.38
2022-08-11T23:54:07.879Z,15.85
2022-08-11T23:56:55.157Z,15.27
2022-08-11T23:59:41.048Z,15.05
